sensor_id;sensor_type;location;lat;lon;timestamp;pressure;altitude;pressure_sealevel;temperature;humidity
61324;BME280;47203;48.428;11.974;2022-07-18T00:01:42;97558.88;;;20.01;38.07
61324;BME280;47203;48.428;11.974;2022-07-18T00:03:50;97555.53;;;19.95;38.64
61324;BME280;47203;48.428;11.974;2022-07-18T00:05:55;97551.56;;;19.93;38.52
61324;BME280;47203;48.428;11.974;2022-07-18T00:08:00;97556.75;;;19.89;38.54
61324;BME280;47203;48.428;11.974;2022-07-18T00:10:07;97548.22;;;19.87;38.29
61324;BME280;47203;48.428;11.974;2022-07-18T00:12:12;97555.78;;;19.85;38.23
61324;BME280;47203;48.428;11.974;2022-07-18T00:14:17;97556.84;;;19.84;38.06
61324;BME280;47203;48.428;11.974;2022-07-18T00:16:23;97558.25;;;19.81;38.58
61324;BME280;47203;48.428;11.974;2022-07-18T00:18:28;97552.44;;;19.79;38.29
61324;BME280;47203;48.428;11.974;2022-07-18T00:20:37;97556.47;;;19.77;38.52
61324;BME280;47203;48.428;11.974;2022-07-18T00:22:42;97554.91;;;19.76;38.26
61324;BME280;47203;48.428;11.974;2022-07-18T00:24:47;97546.38;;;19.74;38.29
61324;BME280;47203;48.428;11.974;2022-07-18T00:26:52;97550.44;;;19.71;38.21
61324;BME280;47203;48.428;11.974;2022-07-18T00:28:57;97549.97;;;19.69;38.35
61324;BME280;47203;48.428;11.974;2022-07-18T00:31:03;97547.09;;;19.65;38.44
61324;BME280;47203;48.428;11.974;2022-07-18T00:33:08;97540.19;;;19.64;38.38
61324;BME280;47203;48.428;11.974;2022-07-18T00:35:13;97549.59;;;19.62;38.54
61324;BME280;47203;48.428;11.974;2022-07-18T00:37:21;97550.22;;;19.59;38.29
61324;BME280;47203;48.428;11.974;2022-07-18T00:39:26;97552.88;;;19.59;38.28
61324;BME280;47203;48.428;11.974;2022-07-18T00:41:32;97546.25;;;19.56;38.48
61324;BME280;47203;48.428;11.974;2022-07-18T00:43:37;97554.56;;;19.54;38.35
61324;BME280;47203;48.428;11.974;2022-07-18T00:45:44;97555.47;;;19.50;38.53
61324;BME280;47203;48.428;11.974;2022-07-18T00:47:50;97552.03;;;19.49;38.56
61324;BME280;47203;48.428;11.974;2022-07-18T00:49:55;97554.19;;;19.47;38.58
61324;BME280;47203;48.428;11.974;2022-07-18T00:52:00;97554.50;;;19.46;38.54
61324;BME280;47203;48.428;11.974;2022-07-18T00:54:08;97553.81;;;19.40;38.81
61324;BME280;47203;48.428;11.974;2022-07-18T00:56:17;97548.31;;;19.36;38.89
61324;BME280;47203;48.428;11.974;2022-07-18T00:58:22;97556.63;;;19.35;38.89
61324;BME280;47203;48.428;11.974;2022-07-18T01:00:28;97553.75;;;19.31;38.82
61324;BME280;47203;48.428;11.974;2022-07-18T01:02:45;97552.28;;;19.25;38.83
61324;BME280;47203;48.428;11.974;2022-07-18T01:04:51;97555.56;;;19.22;39.00
61324;BME280;47203;48.428;11.974;2022-07-18T01:06:56;97561.78;;;19.17;39.14
61324;BME280;47203;48.428;11.974;2022-07-18T01:09:02;97565.38;;;19.13;39.29
61324;BME280;47203;48.428;11.974;2022-07-18T01:11:11;97553.19;;;19.07;39.23
61324;BME280;47203;48.428;11.974;2022-07-18T01:13:16;97558.34;;;19.03;39.15
61324;BME280;47203;48.428;11.974;2022-07-18T01:15:22;97557.06;;;19.00;39.14
61324;BME280;47203;48.428;11.974;2022-07-18T01:17:27;97555.78;;;18.98;39.31
61324;BME280;47203;48.428;11.974;2022-07-18T01:19:36;97551.84;;;18.95;39.52
61324;BME280;47203;48.428;11.974;2022-07-18T01:21:44;97554.59;;;18.90;39.96
61324;BME280;47203;48.428;11.974;2022-07-18T01:23:49;97553.31;;;18.88;39.98
61324;BME280;47203;48.428;11.974;2022-07-18T01:25:55;97551.22;;;18.84;39.92
61324;BME280;47203;48.428;11.974;2022-07-18T01:28:00;97554.47;;;18.81;40.00
61324;BME280;47203;48.428;11.974;2022-07-18T01:30:08;97557.25;;;18.76;40.13
61324;BME280;47203;48.428;11.974;2022-07-18T01:32:15;97554.38;;;18.73;40.02
61324;BME280;47203;48.428;11.974;2022-07-18T01:34:21;97555.75;;;18.70;40.30
61324;BME280;47203;48.428;11.974;2022-07-18T01:36:27;97552.59;;;18.68;40.02
61324;BME280;47203;48.428;11.974;2022-07-18T01:38:36;97551.63;;;18.64;40.46
61324;BME280;47203;48.428;11.974;2022-07-18T01:40:42;97555.66;;;18.61;40.19
61324;BME280;47203;48.428;11.974;2022-07-18T01:42:47;97556.25;;;18.58;40.65
61324;BME280;47203;48.428;11.974;2022-07-18T01:44:52;97555.78;;;18.56;40.54
61324;BME280;47203;48.428;11.974;2022-07-18T01:46:58;97556.38;;;18.53;40.86
61324;BME280;47203;48.428;11.974;2022-07-18T01:49:03;97562.28;;;18.50;40.73
61324;BME280;47203;48.428;11.974;2022-07-18T01:51:08;97558.13;;;18.44;41.06
61324;BME280;47203;48.428;11.974;2022-07-18T01:53:13;97556.34;;;18.39;40.96
61324;BME280;47203;48.428;11.974;2022-07-18T01:55:21;97559.59;;;18.36;40.91
61324;BME280;47203;48.428;11.974;2022-07-18T01:57:26;97564.13;;;18.36;40.84
61324;BME280;47203;48.428;11.974;2022-07-18T01:59:32;97567.88;;;18.35;41.07
61324;BME280;47203;48.428;11.974;2022-07-18T02:01:37;97558.09;;;18.30;41.13
61324;BME280;47203;48.428;11.974;2022-07-18T02:03:42;97552.25;;;18.28;41.10
61324;BME280;47203;48.428;11.974;2022-07-18T02:05:47;97559.00;;;18.25;41.19
61324;BME280;47203;48.428;11.974;2022-07-18T02:07:53;97551.56;;;18.22;41.47
61324;BME280;47203;48.428;11.974;2022-07-18T02:09:59;97557.00;;;18.17;41.36
61324;BME280;47203;48.428;11.974;2022-07-18T02:12:07;97554.69;;;18.10;41.40
61324;BME280;47203;48.428;11.974;2022-07-18T02:14:12;97553.91;;;18.10;41.55
61324;BME280;47203;48.428;11.974;2022-07-18T02:16:17;97558.75;;;18.08;41.43
61324;BME280;47203;48.428;11.974;2022-07-18T02:18:22;97549.47;;;18.05;41.80
61324;BME280;47203;48.428;11.974;2022-07-18T02:20:28;97555.38;;;18.02;41.62
61324;BME280;47203;48.428;11.974;2022-07-18T02:22:33;97548.47;;;18.01;41.58
61324;BME280;47203;48.428;11.974;2022-07-18T02:24:38;97555.16;;;17.99;41.44
61324;BME280;47203;48.428;11.974;2022-07-18T02:26:44;97544.03;;;17.96;41.62
61324;BME280;47203;48.428;11.974;2022-07-18T02:28:51;97550.22;;;17.92;41.73
61324;BME280;47203;48.428;11.974;2022-07-18T02:30:56;97552.88;;;17.92;41.48
61324;BME280;47203;48.428;11.974;2022-07-18T02:33:02;97555.28;;;17.88;41.54
61324;BME280;47203;48.428;11.974;2022-07-18T02:35:09;97555.09;;;17.85;41.98
61324;BME280;47203;48.428;11.974;2022-07-18T02:37:16;97562.38;;;17.79;41.95
61324;BME280;47203;48.428;11.974;2022-07-18T02:39:21;97554.44;;;17.74;42.01
61324;BME280;47203;48.428;11.974;2022-07-18T02:41:26;97550.50;;;17.71;42.35
61324;BME280;47203;48.428;11.974;2022-07-18T02:43:32;97545.47;;;17.70;42.13
61324;BME280;47203;48.428;11.974;2022-07-18T02:45:39;97548.69;;;17.67;42.30
61324;BME280;47203;48.428;11.974;2022-07-18T02:47:45;97564.38;;;17.68;42.14
61324;BME280;47203;48.428;11.974;2022-07-18T02:49:50;97560.94;;;17.68;42.41
61324;BME280;47203;48.428;11.974;2022-07-18T02:51:58;97560.75;;;17.64;42.55
61324;BME280;47203;48.428;11.974;2022-07-18T02:54:03;97555.41;;;17.64;42.54
61324;BME280;47203;48.428;11.974;2022-07-18T02:56:08;97556.50;;;17.63;42.37
61324;BME280;47203;48.428;11.974;2022-07-18T02:58:13;97559.72;;;17.60;42.31
61324;BME280;47203;48.428;11.974;2022-07-18T03:00:19;97559.22;;;17.58;42.46
61324;BME280;47203;48.428;11.974;2022-07-18T03:02:26;97559.00;;;17.54;42.72
61324;BME280;47203;48.428;11.974;2022-07-18T03:04:32;97562.75;;;17.53;42.90
61324;BME280;47203;48.428;11.974;2022-07-18T03:06:37;97559.59;;;17.51;43.14
61324;BME280;47203;48.428;11.974;2022-07-18T03:08:42;97563.63;;;17.49;43.24
61324;BME280;47203;48.428;11.974;2022-07-18T03:10:48;97563.91;;;17.47;43.10
61324;BME280;47203;48.428;11.974;2022-07-18T03:12:53;97556.50;;;17.44;42.99
61324;BME280;47203;48.428;11.974;2022-07-18T03:14:58;97560.03;;;17.39;42.95
61324;BME280;47203;48.428;11.974;2022-07-18T03:17:03;97561.38;;;17.37;43.45
61324;BME280;47203;48.428;11.974;2022-07-18T03:19:11;97561.97;;;17.34;43.36
61324;BME280;47203;48.428;11.974;2022-07-18T03:21:17;97564.63;;;17.34;43.19
61324;BME280;47203;48.428;11.974;2022-07-18T03:23:22;97567.28;;;17.34;43.33
61324;BME280;47203;48.428;11.974;2022-07-18T03:25:27;97567.56;;;17.32;43.60
61324;BME280;47203;48.428;11.974;2022-07-18T03:27:32;97575.84;;;17.31;43.67
61324;BME280;47203;48.428;11.974;2022-07-18T03:29:37;97573.75;;;17.27;43.68
61324;BME280;47203;48.428;11.974;2022-07-18T03:31:43;97577.50;;;17.26;43.44
61324;BME280;47203;48.428;11.974;2022-07-18T03:33:48;97576.47;;;17.22;43.73
61324;BME280;47203;48.428;11.974;2022-07-18T03:35:56;97581.34;;;17.15;44.35
61324;BME280;47203;48.428;11.974;2022-07-18T03:38:01;97583.50;;;17.13;43.97
61324;BME280;47203;48.428;11.974;2022-07-18T03:40:08;97582.22;;;17.10;44.51
61324;BME280;47203;48.428;11.974;2022-07-18T03:42:14;97582.22;;;17.10;44.34
61324;BME280;47203;48.428;11.974;2022-07-18T03:44:19;97577.97;;;17.09;44.45
61324;BME280;47203;48.428;11.974;2022-07-18T03:46:24;97572.63;;;17.09;44.15
61324;BME280;47203;48.428;11.974;2022-07-18T03:48:30;97585.16;;;17.09;44.27
61324;BME280;47203;48.428;11.974;2022-07-18T03:50:35;97588.59;;;17.09;44.30
61324;BME280;47203;48.428;11.974;2022-07-18T03:52:43;97588.09;;;17.07;44.33
61324;BME280;47203;48.428;11.974;2022-07-18T03:54:48;97590.19;;;17.10;44.16
61324;BME280;47203;48.428;11.974;2022-07-18T03:56:53;97592.06;;;17.10;44.21
61324;BME280;47203;48.428;11.974;2022-07-18T03:58:58;97601.13;;;17.09;44.44
61324;BME280;47203;48.428;11.974;2022-07-18T04:01:04;97595.00;;;17.08;44.45
61324;BME280;47203;48.428;11.974;2022-07-18T04:03:09;97600.34;;;17.08;44.60
61324;BME280;47203;48.428;11.974;2022-07-18T04:05:16;97597.69;;;17.08;44.95
61324;BME280;47203;48.428;11.974;2022-07-18T04:07:21;97594.44;;;17.12;44.70
61324;BME280;47203;48.428;11.974;2022-07-18T04:09:29;97598.66;;;17.13;44.77
61324;BME280;47203;48.428;11.974;2022-07-18T04:11:35;97589.84;;;17.17;44.67
61324;BME280;47203;48.428;11.974;2022-07-18T04:13:40;97589.28;;;17.20;44.82
61324;BME280;47203;48.428;11.974;2022-07-18T04:15:45;97587.63;;;17.24;44.57
61324;BME280;47203;48.428;11.974;2022-07-18T04:17:52;97575.59;;;17.27;44.43
61324;BME280;47203;48.428;11.974;2022-07-18T04:19:57;97581.66;;;17.33;44.44
61324;BME280;47203;48.428;11.974;2022-07-18T04:22:02;97584.84;;;17.35;44.65
61324;BME280;47203;48.428;11.974;2022-07-18T04:24:07;97574.19;;;17.35;44.59
61324;BME280;47203;48.428;11.974;2022-07-18T04:26:16;97583.25;;;17.34;44.44
61324;BME280;47203;48.428;11.974;2022-07-18T04:28:21;97586.97;;;17.33;44.35
61324;BME280;47203;48.428;11.974;2022-07-18T04:30:28;97583.88;;;17.25;44.76
61324;BME280;47203;48.428;11.974;2022-07-18T04:32:33;97594.59;;;17.20;44.69
61324;BME280;47203;48.428;11.974;2022-07-18T04:34:38;97596.53;;;17.15;44.73
61324;BME280;47203;48.428;11.974;2022-07-18T04:36:43;97595.22;;;17.12;44.98
61324;BME280;47203;48.428;11.974;2022-07-18T04:38:48;97591.78;;;17.12;45.08
61324;BME280;47203;48.428;11.974;2022-07-18T04:40:54;97590.69;;;17.13;45.17
61324;BME280;47203;48.428;11.974;2022-07-18T04:43:02;97583.22;;;17.15;45.12
61324;BME280;47203;48.428;11.974;2022-07-18T04:45:09;97590.84;;;17.21;44.93
61324;BME280;47203;48.428;11.974;2022-07-18T04:47:14;97590.50;;;17.28;44.79
61324;BME280;47203;48.428;11.974;2022-07-18T04:49:19;97587.50;;;17.35;45.12
61324;BME280;47203;48.428;11.974;2022-07-18T04:51:27;97583.41;;;17.42;45.10
61324;BME280;47203;48.428;11.974;2022-07-18T04:53:32;97577.94;;;17.53;44.92
61324;BME280;47203;48.428;11.974;2022-07-18T04:55:37;97578.84;;;17.62;44.62
61324;BME280;47203;48.428;11.974;2022-07-18T04:57:43;97578.22;;;17.70;44.78
61324;BME280;47203;48.428;11.974;2022-07-18T04:59:51;97587.13;;;17.79;44.68
61324;BME280;47203;48.428;11.974;2022-07-18T05:01:56;97587.50;;;17.92;44.88
61324;BME280;47203;48.428;11.974;2022-07-18T05:04:01;97588.91;;;18.03;44.68
61324;BME280;47203;48.428;11.974;2022-07-18T05:06:07;97595.66;;;18.14;44.55
61324;BME280;47203;48.428;11.974;2022-07-18T05:08:12;97590.16;;;18.25;44.09
61324;BME280;47203;48.428;11.974;2022-07-18T05:10:20;97595.31;;;18.35;44.11
61324;BME280;47203;48.428;11.974;2022-07-18T05:12:26;97593.75;;;18.48;44.67
61324;BME280;47203;48.428;11.974;2022-07-18T05:14:31;97593.28;;;18.60;44.23
61324;BME280;47203;48.428;11.974;2022-07-18T05:16:43;97587.75;;;18.70;44.61
61324;BME280;47203;48.428;11.974;2022-07-18T05:18:48;97586.47;;;18.81;44.49
61324;BME280;47203;48.428;11.974;2022-07-18T05:20:54;97587.38;;;18.91;43.97
61324;BME280;47203;48.428;11.974;2022-07-18T05:22:59;97576.81;;;18.99;44.29
61324;BME280;47203;48.428;11.974;2022-07-18T05:25:07;97583.06;;;19.09;44.02
61324;BME280;47203;48.428;11.974;2022-07-18T05:27:12;97587.38;;;19.18;43.84
61324;BME280;47203;48.428;11.974;2022-07-18T05:29:18;97583.22;;;19.26;43.72
61324;BME280;47203;48.428;11.974;2022-07-18T05:31:23;97580.13;;;19.33;43.75
61324;BME280;47203;48.428;11.974;2022-07-18T05:33:31;97587.44;;;19.41;43.77
61324;BME280;47203;48.428;11.974;2022-07-18T05:35:38;97584.53;;;19.51;43.27
61324;BME280;47203;48.428;11.974;2022-07-18T05:37:43;97582.72;;;19.61;43.19
61324;BME280;47203;48.428;11.974;2022-07-18T05:39:49;97590.81;;;19.69;43.13
61324;BME280;47203;48.428;11.974;2022-07-18T05:41:55;97590.31;;;19.81;43.15
61324;BME280;47203;48.428;11.974;2022-07-18T05:44:00;97586.00;;;19.94;43.09
61324;BME280;47203;48.428;11.974;2022-07-18T05:46:07;97587.81;;;20.08;43.29
61324;BME280;47203;48.428;11.974;2022-07-18T05:48:19;97589.66;;;20.21;43.27
61324;BME280;47203;48.428;11.974;2022-07-18T05:50:27;97585.28;;;20.34;43.51
61324;BME280;47203;48.428;11.974;2022-07-18T05:52:32;97592.94;;;20.49;43.13
61324;BME280;47203;48.428;11.974;2022-07-18T05:54:37;97584.03;;;20.63;43.29
61324;BME280;47203;48.428;11.974;2022-07-18T05:56:43;97586.94;;;20.75;42.75
61324;BME280;47203;48.428;11.974;2022-07-18T05:58:48;97581.00;;;20.87;42.90
61324;BME280;47203;48.428;11.974;2022-07-18T06:00:53;97580.41;;;20.99;43.16
61324;BME280;47203;48.428;11.974;2022-07-18T06:02:59;97586.25;;;21.09;43.04
61324;BME280;47203;48.428;11.974;2022-07-18T06:05:06;97581.22;;;21.17;43.00
61324;BME280;47203;48.428;11.974;2022-07-18T06:07:31;97585.81;;;21.25;42.78
61324;BME280;47203;48.428;11.974;2022-07-18T06:09:39;97585.81;;;21.34;42.81
61324;BME280;47203;48.428;11.974;2022-07-18T06:11:45;97574.50;;;21.45;42.75
61324;BME280;47203;48.428;11.974;2022-07-18T06:13:50;97583.03;;;21.56;42.36
61324;BME280;47203;48.428;11.974;2022-07-18T06:15:55;97576.72;;;21.70;42.53
61324;BME280;47203;48.428;11.974;2022-07-18T06:18:01;97581.94;;;21.84;42.36
61324;BME280;47203;48.428;11.974;2022-07-18T06:20:08;97580.97;;;21.97;41.94
61324;BME280;47203;48.428;11.974;2022-07-18T06:22:14;97583.00;;;22.09;41.90
61324;BME280;47203;48.428;11.974;2022-07-18T06:24:22;97581.09;;;22.18;41.67
61324;BME280;47203;48.428;11.974;2022-07-18T06:26:27;97576.34;;;22.33;41.54
61324;BME280;47203;48.428;11.974;2022-07-18T06:28:33;97577.88;;;22.42;41.27
61324;BME280;47203;48.428;11.974;2022-07-18T06:30:38;97583.22;;;22.51;41.30
61324;BME280;47203;48.428;11.974;2022-07-18T06:32:44;97582.41;;;22.59;41.63
61324;BME280;47203;48.428;11.974;2022-07-18T06:34:50;97570.22;;;22.71;41.60
61324;BME280;47203;48.428;11.974;2022-07-18T06:36:55;97578.38;;;22.83;41.36
61324;BME280;47203;48.428;11.974;2022-07-18T06:39:00;97587.31;;;22.96;41.26
61324;BME280;47203;48.428;11.974;2022-07-18T06:41:13;97585.69;;;23.04;41.10
61324;BME280;47203;48.428;11.974;2022-07-18T06:43:18;97584.34;;;23.18;40.78
61324;BME280;47203;48.428;11.974;2022-07-18T06:45:24;97584.78;;;23.29;40.58
61324;BME280;47203;48.428;11.974;2022-07-18T06:47:30;97584.38;;;23.40;40.85
61324;BME280;47203;48.428;11.974;2022-07-18T06:49:35;97591.72;;;23.51;40.92
61324;BME280;47203;48.428;11.974;2022-07-18T06:51:40;97591.34;;;23.62;40.93
61324;BME280;47203;48.428;11.974;2022-07-18T06:53:46;97584.13;;;23.75;40.44
61324;BME280;47203;48.428;11.974;2022-07-18T06:55:51;97590.69;;;23.86;40.24
61324;BME280;47203;48.428;11.974;2022-07-18T06:57:59;97584.09;;;23.96;40.07
61324;BME280;47203;48.428;11.974;2022-07-18T07:00:07;97594.59;;;24.10;40.31
61324;BME280;47203;48.428;11.974;2022-07-18T07:02:13;97594.41;;;24.27;40.25
61324;BME280;47203;48.428;11.974;2022-07-18T07:04:18;97591.88;;;24.43;39.08
61324;BME280;47203;48.428;11.974;2022-07-18T07:06:24;97588.84;;;24.57;38.76
61324;BME280;47203;48.428;11.974;2022-07-18T07:08:29;97591.81;;;24.64;39.04
61324;BME280;47203;48.428;11.974;2022-07-18T07:10:34;97594.06;;;24.74;38.46
61324;BME280;47203;48.428;11.974;2022-07-18T07:12:41;97595.53;;;24.84;38.30
61324;BME280;47203;48.428;11.974;2022-07-18T07:14:50;97598.88;;;24.94;38.79
61324;BME280;47203;48.428;11.974;2022-07-18T07:16:55;97599.66;;;25.06;38.61
61324;BME280;47203;48.428;11.974;2022-07-18T07:19:00;97595.81;;;25.20;39.22
61324;BME280;47203;48.428;11.974;2022-07-18T07:21:06;97600.56;;;25.35;38.37
61324;BME280;47203;48.428;11.974;2022-07-18T07:23:11;97598.28;;;25.50;38.37
61324;BME280;47203;48.428;11.974;2022-07-18T07:25:21;97587.13;;;25.64;38.38
61324;BME280;47203;48.428;11.974;2022-07-18T07:27:26;97598.31;;;25.78;38.14
61324;BME280;47203;48.428;11.974;2022-07-18T07:29:31;97603.75;;;25.94;38.44
61324;BME280;47203;48.428;11.974;2022-07-18T07:31:39;97601.91;;;26.10;37.64
61324;BME280;47203;48.428;11.974;2022-07-18T07:33:45;97601.25;;;26.29;37.87
61324;BME280;47203;48.428;11.974;2022-07-18T07:35:50;97596.22;;;26.44;37.10
61324;BME280;47203;48.428;11.974;2022-07-18T07:37:58;97586.00;;;26.53;36.64
61324;BME280;47203;48.428;11.974;2022-07-18T07:40:05;97593.69;;;26.67;36.73
61324;BME280;47203;48.428;11.974;2022-07-18T07:42:11;97588.66;;;26.81;36.34
61324;BME280;47203;48.428;11.974;2022-07-18T07:44:16;97594.41;;;26.96;36.00
61324;BME280;47203;48.428;11.974;2022-07-18T07:46:21;97593.16;;;27.09;35.64
61324;BME280;47203;48.428;11.974;2022-07-18T07:48:29;97589.56;;;27.21;35.38
61324;BME280;47203;48.428;11.974;2022-07-18T07:50:35;97594.84;;;27.33;35.63
61324;BME280;47203;48.428;11.974;2022-07-18T07:52:40;97590.13;;;27.46;35.27
61324;BME280;47203;48.428;11.974;2022-07-18T07:54:45;97591.53;;;27.60;35.33
61324;BME280;47203;48.428;11.974;2022-07-18T07:56:51;97593.00;;;27.73;34.54
61324;BME280;47203;48.428;11.974;2022-07-18T07:58:56;97584.66;;;27.82;35.40
61324;BME280;47203;48.428;11.974;2022-07-18T08:01:03;97592.72;;;27.98;35.03
61324;BME280;47203;48.428;11.974;2022-07-18T08:03:08;97584.84;;;28.12;34.63
61324;BME280;47203;48.428;11.974;2022-07-18T08:05:16;97589.34;;;28.24;33.75
61324;BME280;47203;48.428;11.974;2022-07-18T08:07:22;97588.88;;;28.42;34.42
61324;BME280;47203;48.428;11.974;2022-07-18T08:09:27;97591.09;;;28.59;33.95
61324;BME280;47203;48.428;11.974;2022-07-18T08:11:33;97592.53;;;28.76;33.97
61324;BME280;47203;48.428;11.974;2022-07-18T08:13:38;97592.03;;;28.94;33.67
61324;BME280;47203;48.428;11.974;2022-07-18T08:15:43;97585.25;;;29.07;33.39
61324;BME280;47203;48.428;11.974;2022-07-18T08:17:48;97586.94;;;29.19;32.36
61324;BME280;47203;48.428;11.974;2022-07-18T08:19:54;97580.16;;;29.29;32.65
61324;BME280;47203;48.428;11.974;2022-07-18T08:22:02;97576.41;;;29.37;32.68
61324;BME280;47203;48.428;11.974;2022-07-18T08:24:08;97578.09;;;29.49;32.23
61324;BME280;47203;48.428;11.974;2022-07-18T08:26:14;97573.53;;;29.56;31.98
61324;BME280;47203;48.428;11.974;2022-07-18T08:28:19;97582.97;;;29.66;32.27
61324;BME280;47203;48.428;11.974;2022-07-18T08:30:26;97567.53;;;29.74;32.43
61324;BME280;47203;48.428;11.974;2022-07-18T08:32:33;97570.00;;;29.83;31.98
61324;BME280;47203;48.428;11.974;2022-07-18T08:34:39;97563.16;;;29.96;31.97
61324;BME280;47203;48.428;11.974;2022-07-18T08:36:44;97562.91;;;30.12;32.22
61324;BME280;47203;48.428;11.974;2022-07-18T08:38:52;97558.78;;;30.25;31.18
61324;BME280;47203;48.428;11.974;2022-07-18T08:40:59;97567.41;;;30.35;31.86
61324;BME280;47203;48.428;11.974;2022-07-18T08:43:05;97576.84;;;30.48;31.18
61324;BME280;47203;48.428;11.974;2022-07-18T08:45:26;97573.50;;;30.66;31.51
61324;BME280;47203;48.428;11.974;2022-07-18T08:47:32;97568.56;;;30.78;30.38
61324;BME280;47203;48.428;11.974;2022-07-18T08:49:38;97567.41;;;30.83;29.66
61324;BME280;47203;48.428;11.974;2022-07-18T08:51:44;97571.31;;;30.86;30.14
61324;BME280;47203;48.428;11.974;2022-07-18T08:53:54;97569.00;;;30.91;29.86
61324;BME280;47203;48.428;11.974;2022-07-18T08:55:59;97571.47;;;31.04;29.42
61324;BME280;47203;48.428;11.974;2022-07-18T08:58:04;97569.19;;;31.13;29.88
61324;BME280;47203;48.428;11.974;2022-07-18T09:00:31;97566.16;;;31.25;29.28
61324;BME280;47203;48.428;11.974;2022-07-18T09:02:41;97565.03;;;31.37;29.55
61324;BME280;47203;48.428;11.974;2022-07-18T09:04:48;97568.97;;;31.50;29.51
61324;BME280;47203;48.428;11.974;2022-07-18T09:07:26;97561.25;;;31.60;29.30
61324;BME280;47203;48.428;11.974;2022-07-18T09:09:36;97570.28;;;31.75;28.35
61324;BME280;47203;48.428;11.974;2022-07-18T09:11:53;97566.00;;;31.81;26.74
61324;BME280;47203;48.428;11.974;2022-07-18T09:13:59;97569.16;;;31.94;27.03
61324;BME280;47203;48.428;11.974;2022-07-18T09:16:07;97574.63;;;32.01;26.30
61324;BME280;47203;48.428;11.974;2022-07-18T09:18:12;97567.22;;;32.09;26.23
61324;BME280;47203;48.428;11.974;2022-07-18T09:20:39;97557.16;;;32.20;26.30
61324;BME280;47203;48.428;11.974;2022-07-18T09:22:47;97563.78;;;32.37;25.05
61324;BME280;47203;48.428;11.974;2022-07-18T09:25:02;97563.41;;;32.42;24.86
61324;BME280;47203;48.428;11.974;2022-07-18T09:27:27;97567.69;;;32.54;25.90
61324;BME280;47203;48.428;11.974;2022-07-18T09:29:32;97567.31;;;32.70;24.83
61324;BME280;47203;48.428;11.974;2022-07-18T09:31:48;97565.75;;;32.76;24.31
61324;BME280;47203;48.428;11.974;2022-07-18T09:33:56;97575.06;;;32.89;23.73
61324;BME280;47203;48.428;11.974;2022-07-18T09:36:01;97566.50;;;32.98;23.64
61324;BME280;47203;48.428;11.974;2022-07-18T09:38:10;97570.00;;;33.02;24.04
61324;BME280;47203;48.428;11.974;2022-07-18T09:40:21;97573.50;;;33.06;23.59
61324;BME280;47203;48.428;11.974;2022-07-18T09:42:28;97567.25;;;33.17;23.78
61324;BME280;47203;48.428;11.974;2022-07-18T09:44:33;97566.81;;;33.29;23.13
61324;BME280;47203;48.428;11.974;2022-07-18T09:46:58;97564.50;;;33.31;23.10
61324;BME280;47203;48.428;11.974;2022-07-18T09:49:11;97557.81;;;33.39;22.99
61324;BME280;47203;48.428;11.974;2022-07-18T09:51:16;97560.50;;;33.54;23.45
61324;BME280;47203;48.428;11.974;2022-07-18T09:53:24;97562.00;;;33.66;23.71
61324;BME280;47203;48.428;11.974;2022-07-18T09:55:44;97567.06;;;33.74;22.94
61324;BME280;47203;48.428;11.974;2022-07-18T09:57:58;97566.22;;;33.85;22.04
61324;BME280;47203;48.428;11.974;2022-07-18T10:00:05;97565.84;;;33.86;21.86
61324;BME280;47203;48.428;11.974;2022-07-18T10:02:14;97564.69;;;33.84;22.11
61324;BME280;47203;48.428;11.974;2022-07-18T10:04:20;97561.16;;;33.83;21.94
61324;BME280;47203;48.428;11.974;2022-07-18T10:06:25;97556.50;;;33.80;21.63
61324;BME280;47203;48.428;11.974;2022-07-18T10:08:33;97563.13;;;33.83;21.85
61324;BME280;47203;48.428;11.974;2022-07-18T10:10:45;97559.19;;;33.91;21.26
61324;BME280;47203;48.428;11.974;2022-07-18T10:12:54;97561.88;;;33.95;20.95
61324;BME280;47203;48.428;11.974;2022-07-18T10:14:59;97568.09;;;33.95;20.44
61324;BME280;47203;48.428;11.974;2022-07-18T10:17:04;97555.22;;;33.99;20.98
61324;BME280;47203;48.428;11.974;2022-07-18T10:19:10;97557.50;;;34.08;21.09
61324;BME280;47203;48.428;11.974;2022-07-18T10:21:19;97550.41;;;34.18;21.76
61324;BME280;47203;48.428;11.974;2022-07-18T10:23:32;97555.00;;;34.35;20.74
61324;BME280;47203;48.428;11.974;2022-07-18T10:25:41;97542.78;;;34.51;20.47
61324;BME280;47203;48.428;11.974;2022-07-18T10:27:52;97550.53;;;34.59;20.87
61324;BME280;47203;48.428;11.974;2022-07-18T10:30:12;97554.72;;;34.71;21.08
61324;BME280;47203;48.428;11.974;2022-07-18T10:32:32;97554.16;;;34.91;20.95
61324;BME280;47203;48.428;11.974;2022-07-18T10:34:37;97554.75;;;35.09;20.38
61324;BME280;47203;48.428;11.974;2022-07-18T10:37:10;97548.38;;;35.20;20.42
61324;BME280;47203;48.428;11.974;2022-07-18T10:39:18;97557.53;;;35.40;19.85
61324;BME280;47203;48.428;11.974;2022-07-18T10:41:29;97549.56;;;35.53;18.74
61324;BME280;47203;48.428;11.974;2022-07-18T10:43:43;97540.88;;;35.58;19.00
61324;BME280;47203;48.428;11.974;2022-07-18T10:45:49;97545.13;;;35.63;19.08
61324;BME280;47203;48.428;11.974;2022-07-18T10:47:55;97534.97;;;35.63;18.55
61324;BME280;47203;48.428;11.974;2022-07-18T10:50:09;97543.22;;;35.60;18.92
61324;BME280;47203;48.428;11.974;2022-07-18T10:52:55;97538.63;;;35.53;18.59
61324;BME280;47203;48.428;11.974;2022-07-18T10:55:29;97540.63;;;35.49;19.60
61324;BME280;47203;48.428;11.974;2022-07-18T10:57:39;97535.09;;;35.53;18.99
61324;BME280;47203;48.428;11.974;2022-07-18T11:00:08;97531.66;;;35.48;18.43
61324;BME280;47203;48.428;11.974;2022-07-18T11:02:15;97530.44;;;35.50;18.27
61324;BME280;47203;48.428;11.974;2022-07-18T11:04:28;97536.06;;;35.39;17.89
61324;BME280;47203;48.428;11.974;2022-07-18T11:06:53;97533.88;;;35.23;18.25